Port Clyde, ME (04855)

5:36 AM EST on December 07, 2016 (GMT -0500)
Blueberry Cove Camp | | Change Station

Elev 56 ft 43.96 °N, 69.21 °W | Updated 2 minutes ago

Overcast
Overcast
30.5 °F
Feels Like 30 °F
N
0.7
Wind Variable Wind from NE
Gusts 2.3 mph

Today
High -- | Low -- °F
--% Chance of Precip.
Yesterday
High -- | Low -- °F
Precip. -- in
Pressure 29.97 in
Visibility 10.0 miles
Clouds Few 1400 ft
Overcast 10000 ft
Windchill 30 °F
Dew Point 29 °F
Humidity 93%
Rainfall 0.00 in
Snow Depth Not available.
6:58 AM 3:59 PM
Waxing Crescent, 51% visible
SPECI KRKD 071028Z AUTO 06006KT 10SM FEW014 OVC100 M01/M03 A2997 RMK AO2 FZRANO
Pressure 29.97 in
Visibility 10.0 miles
Clouds Few 1400 ft
Overcast 10000 ft
Windchill 30 °F
Dew Point 29 °F
Humidity 93%
Rainfall 0.00 in
Snow Depth Not available.
6:58 AM 3:59 PM
Waxing Crescent, 51% visible
SPECI KRKD 071028Z AUTO 06006KT 10SM FEW014 OVC100 M01/M03 A2997 RMK AO2 FZRANO

10-Day Weather Forecast

Almanac

Astronomy

Dec. 07, 2016 Rise Set
Actual Time
Civil Twilight
Nautical Twilight
Astronomical Twilight
Moon
Length of Visible Light
Length of Day
Tomorrow will be .
, % of the Moon is Illuminated

Today's Extremes

State Highs State Lows

Community

WunderPhotos

Upload Photos

1,956,111 photos uploaded!

WunderBlog® & News

Nearby

Air Quality

  Air Quality AQ Index Pollutant
Not available.

Snow Depth

Station Depth Elevation

Earthquake Activity

City Distance Mag. Time & Date
Minimum magnitude displayed is 2.5.

Coastal Water Temperatures

Place Temperature

Stations

Nearby Weather Stations

Station Location Temp. Windchill Dew Point Humidity Wind Precip. Elev Updated Type
                   

Watches & Warnings

There are currently no watches in effect.